Time;durP1;ratioP1;P1;durP2;ratioP2;P2;SDS_P1;SDS_P2;PMS_P1;PMS_P2;Temp;Humidity;BMP_temperature;BMP_pressure;BME280_temperature;BME280_humidity;BME280_pressure;Samples;Min_cycle;Max_cycle;Signal;HPM_P1;HPM_P2
2021/03/28 00:00:51;380980.00;1.27;657.11;0.00;0.00;0.62;;;;;11.70;1.00;;;;;;2255529;61;1919;-90
2021/03/28 00:03:25;275831.00;0.92;476.37;6105.00;0.02;11.20;;;;;11.80;1.00;;;;;;2251663;61;939;-92
2021/03/28 00:05:52;389273.00;1.30;671.36;0.00;0.00;0.62;;;;;12.40;1.00;;;;;;2251607;61;957;-92
2021/03/28 00:08:24;264059.00;0.88;456.13;0.00;0.00;0.62;;;;;12.90;1.00;;;;;;2247998;61;1088;-89
2021/03/28 00:10:53;156358.00;0.52;270.76;0.00;0.00;0.62;;;;;13.30;1.00;;;;;;2244283;62;1429;-91
2021/03/28 00:13:25;289188.00;0.96;499.33;0.00;0.00;0.62;;;;;13.50;1.00;;;;;;2240272;62;1026;-91
2021/03/28 00:16:06;278323.00;0.93;480.65;0.00;0.00;0.62;;;;;13.80;1.00;;;;;;2233896;62;1019;-90
2021/03/28 00:18:49;187147.00;0.62;323.80;0.00;0.00;0.62;;;;;14.00;1.00;;;;;;2246133;61;965;-91
2021/03/28 00:21:19;215715.00;0.72;372.97;0.00;0.00;0.62;;;;;13.70;1.00;;;;;;2250071;61;1997;-90
2021/03/28 00:23:50;243065.00;0.81;420.02;0.00;0.00;0.62;;;;;13.30;1.00;;;;;;2248934;61;1041;-89
2021/03/28 00:26:26;260556.00;0.87;450.10;0.00;0.00;0.62;;;;;13.00;1.00;;;;;;2247622;61;1054;-91
2021/03/28 00:29:06;292489.00;0.97;505.01;0.00;0.00;0.62;;;;;12.90;1.00;;;;;;2250462;61;1009;-89
2021/03/28 00:31:37;362969.00;1.21;626.15;0.00;0.00;0.62;;;;;12.40;1.00;;;;;;2262468;61;1439;-89
2021/03/28 00:34:21;250131.00;0.83;432.18;0.00;0.00;0.62;;;;;12.00;1.00;;;;;;2256124;61;1266;-90
2021/03/28 00:36:51;458113.00;1.53;789.74;85316.00;0.28;148.22;;;;;11.90;1.00;;;;;;2258649;61;1044;-90
2021/03/28 00:39:38;438849.00;1.46;756.60;78690.00;0.26;136.77;;;;;11.80;1.00;;;;;;2253544;61;990;-90
2021/03/28 00:42:10;899329.00;3.00;1554.94;124769.00;0.42;216.31;;;;;11.60;1.00;;;;;;2260129;61;2007;-91
2021/03/28 00:44:49;565481.00;1.88;974.65;84036.00;0.28;146.01;;;;;11.70;1.00;;;;;;2253632;61;1002;-91
2021/03/28 00:47:22;840030.00;2.80;1451.03;87377.00;0.29;151.78;;;;;11.50;1.00;;;;;;2253572;61;984;-90
2021/03/28 00:50:01;402667.00;1.34;694.39;87746.00;0.29;152.42;;;;;11.40;1.00;;;;;;2262573;61;1039;-89
2021/03/28 00:52:33;607717.00;2.03;1047.55;92712.00;0.31;160.99;;;;;11.30;1.00;;;;;;2262797;61;956;-89
2021/03/28 00:55:12;482590.00;1.61;831.85;89365.00;0.30;155.21;;;;;11.60;1.00;;;;;;2264300;61;1028;-91
2021/03/28 00:57:41;390005.00;1.30;672.62;0.00;0.00;0.62;;;;;11.60;1.00;;;;;;2252190;61;970;-88
2021/03/28 01:00:53;713715.00;2.38;1231.03;90452.00;0.30;157.09;;;;;11.50;1.00;;;;;;2252041;61;1279;-91
2021/03/28 01:03:35;439298.00;1.46;757.38;20177.00;0.07;35.58;;;;;11.20;1.00;;;;;;2240356;62;1129;-90
2021/03/28 01:06:16;365896.00;1.22;631.18;0.00;0.00;0.62;;;;;10.90;1.00;;;;;;2240349;62;1038;-91
2021/03/28 01:08:55;260730.00;0.87;450.40;0.00;0.00;0.62;;;;;10.90;1.00;;;;;;2237090;62;991;-89
2021/03/28 01:11:42;414009.00;1.38;713.89;0.00;0.00;0.62;;;;;10.30;1.00;;;;;;2243226;62;1341;-90
2021/03/28 01:14:30;241093.00;0.80;416.63;0.00;0.00;0.62;;;;;9.50;1.00;;;;;;2234464;62;997;-89
2021/03/28 01:17:25;450533.00;1.50;776.70;28548.00;0.10;50.07;;;;;9.40;1.00;;;;;;2248138;61;947;-90
2021/03/28 01:20:19;429001.00;1.43;739.67;0.00;0.00;0.62;;;;;9.40;1.00;;;;;;2244851;61;1000;-89
2021/03/28 01:23:14;472066.00;1.57;813.74;0.00;0.00;0.62;;;;;10.00;1.00;;;;;;2248200;61;1039;-90
2021/03/28 01:26:32;227924.00;0.76;393.98;0.00;0.00;0.62;;;;;10.80;1.00;;;;;;2248239;61;1032;-90
2021/03/28 01:29:11;209698.00;0.70;362.62;0.00;0.00;0.62;;;;;11.60;1.00;;;;;;2246349;61;1045;-90
2021/03/28 01:31:50;454991.00;1.52;784.37;9631.00;0.03;17.31;;;;;11.70;1.00;;;;;;2256089;61;1352;-89
2021/03/28 01:34:23;172143.00;0.57;297.96;0.00;0.00;0.62;;;;;11.90;1.00;;;;;;2256895;61;1120;-90
2021/03/28 01:37:03;186129.00;0.62;322.04;0.00;0.00;0.62;;;;;12.30;1.00;;;;;;2260054;61;1089;-90
2021/03/28 01:39:46;237987.00;0.79;411.29;0.00;0.00;0.62;;;;;12.50;1.00;;;;;;2258973;61;996;-90
2021/03/28 01:42:26;320958.00;1.07;553.94;0.00;0.00;0.62;;;;;12.20;1.00;;;;;;2259964;61;1936;-91
2021/03/28 01:45:01;260765.00;0.87;450.46;0.00;0.00;0.62;;;;;12.00;1.00;;;;;;2256691;61;980;-89
2021/03/28 01:47:38;293474.00;0.98;506.70;0.00;0.00;0.62;;;;;11.70;1.00;;;;;;2251948;61;922;-88
2021/03/28 01:50:29;291292.00;0.97;502.95;0.00;0.00;0.62;;;;;11.60;1.00;;;;;;2251901;61;1367;-88
2021/03/28 01:53:09;221962.00;0.74;383.72;0.00;0.00;0.62;;;;;11.80;1.00;;;;;;2252014;61;1046;-90
2021/03/28 01:55:44;224622.00;0.75;388.30;0.00;0.00;0.62;;;;;12.20;1.00;;;;;;2252030;61;997;-89
2021/03/28 01:58:23;228585.00;0.76;395.11;0.00;0.00;0.62;;;;;11.80;1.00;;;;;;2255119;61;979;-91
2021/03/28 02:01:16;353136.00;1.18;609.25;60644.00;0.20;105.59;;;;;11.20;1.00;;;;;;2262084;61;1998;-90
2021/03/28 02:03:54;265232.00;0.88;458.15;0.00;0.00;0.62;;;;;11.20;1.00;;;;;;2264072;61;1003;-90
2021/03/28 02:06:46;228523.00;0.76;395.01;0.00;0.00;0.62;;;;;11.10;1.00;;;;;;2264484;61;1015;-90
2021/03/28 02:09:28;389629.00;1.30;671.98;0.00;0.00;0.62;;;;;11.50;1.00;;;;;;2272557;61;929;-90
2021/03/28 02:12:04;207726.00;0.69;359.22;0.00;0.00;0.62;;;;;11.90;1.00;;;;;;2265422;61;1440;-90
2021/03/28 02:14:59;304899.00;1.02;526.34;0.00;0.00;0.62;;;;;12.50;1.00;;;;;;2272479;61;1062;-91
2021/03/28 02:17:41;327938.00;1.09;565.94;0.00;0.00;0.62;;;;;13.20;1.00;;;;;;2259859;61;1021;-90
2021/03/28 02:20:16;185700.00;0.62;321.30;0.00;0.00;0.62;;;;;13.60;1.00;;;;;;2251810;61;1357;-90
2021/03/28 02:22:49;387430.00;1.29;668.20;20116.00;0.07;35.47;;;;;14.00;1.00;;;;;;2251890;61;1938;-89
2021/03/28 02:25:19;218148.00;0.73;377.16;0.00;0.00;0.62;;;;;14.10;1.00;;;;;;2247945;61;926;-90
2021/03/28 02:27:54;161050.00;0.54;278.85;0.00;0.00;0.62;;;;;14.20;1.00;;;;;;2247885;61;1124;-91
2021/03/28 02:30:30;218841.00;0.73;378.35;0.00;0.00;0.62;;;;;13.90;1.00;;;;;;2247866;61;1426;-90
2021/03/28 02:33:14;415894.00;1.39;717.13;0.00;0.00;0.62;;;;;13.60;1.00;;;;;;2241430;61;933;-90
2021/03/28 02:36:13;273602.00;0.91;472.54;0.00;0.00;0.62;;;;;13.50;1.00;;;;;;2247989;61;1032;-90
2021/03/28 02:39:22;190081.00;0.63;328.85;0.00;0.00;0.62;;;;;13.60;1.00;;;;;;2227224;62;1040;-89
2021/03/28 02:42:05;205203.00;0.68;354.88;0.00;0.00;0.62;;;;;13.60;1.00;;;;;;2228300;62;1917;-91
2021/03/28 02:44:49;625122.00;2.08;1077.62;87334.00;0.29;151.70;;;;;13.60;1.00;;;;;;2232356;62;1581;-90
2021/03/28 02:47:32;442304.00;1.47;762.55;75378.00;0.25;131.05;;;;;13.30;1.00;;;;;;2236104;62;957;-91
2021/03/28 02:50:24;505940.00;1.69;872.05;78775.00;0.26;136.92;;;;;13.40;1.00;;;;;;2235982;62;1428;-91
2021/03/28 02:53:09;691472.00;2.30;1192.45;69896.00;0.23;121.58;;;;;12.80;1.00;;;;;;2236051;62;1037;-90
2021/03/28 02:55:55;380810.00;1.27;656.82;100139.00;0.33;173.81;;;;;12.70;1.00;;;;;;2239962;61;985;-90
2021/03/28 02:58:53;337134.00;1.12;581.75;83588.00;0.28;145.23;;;;;13.10;1.00;;;;;;2239908;61;985;-91
2021/03/28 03:01:38;419659.00;1.40;723.60;80403.00;0.27;139.73;;;;;13.70;1.00;;;;;;2239899;61;2003;-90
2021/03/28 03:05:00;413012.00;1.38;712.18;67853.00;0.23;118.05;;;;;13.90;1.00;;;;;;2239946;61;1633;-92
2021/03/28 03:07:52;677200.00;2.26;1167.72;0.00;0.00;0.62;;;;;14.20;1.00;;;;;;2239917;62;1765;-90
2021/03/28 03:10:47;950654.00;3.17;1645.26;11743.00;0.04;20.97;;;;;14.40;1.00;;;;;;2239968;62;1640;-90
2021/03/28 03:13:22;305645.00;1.02;527.62;0.00;0.00;0.62;;;;;14.00;1.00;;;;;;2241240;62;1776;-90
2021/03/28 03:15:53;404393.00;1.35;697.36;106687.00;0.36;185.11;;;;;13.40;1.00;;;;;;2260944;61;1741;-90
2021/03/28 03:18:59;263891.00;0.88;455.84;0.00;0.00;0.62;;;;;13.30;1.00;;;;;;2272313;61;1118;-89
2021/03/28 03:22:07;186009.00;0.62;321.84;0.00;0.00;0.62;;;;;13.00;1.00;;;;;;2272242;61;2004;-90
2021/03/28 03:25:21;352585.00;1.18;608.30;77807.00;0.26;135.25;;;;;12.20;1.00;;;;;;2272331;61;1054;-89
2021/03/28 03:28:23;574309.00;1.91;989.88;30701.00;0.10;53.80;;;;;11.60;1.00;;;;;;2272170;61;2057;-89
2021/03/28 03:31:36;368300.00;1.23;635.31;0.00;0.00;0.62;;;;;11.80;1.00;;;;;;2272249;61;1757;-89
2021/03/28 03:34:33;392334.00;1.31;676.63;0.00;0.00;0.62;;;;;12.10;1.00;;;;;;2259752;61;1214;-90
2021/03/28 03:37:36;375410.00;1.25;647.54;0.00;0.00;0.62;;;;;11.90;1.00;;;;;;2271892;61;1582;-89
2021/03/28 03:40:27;265551.00;0.89;458.69;0.00;0.00;0.62;;;;;12.40;1.00;;;;;;2268083;61;1590;-91
2021/03/28 03:43:25;336662.00;1.12;580.94;0.00;0.00;0.62;;;;;13.00;1.00;;;;;;2272198;61;955;-91
2021/03/28 03:46:08;415917.00;1.39;717.17;0.00;0.00;0.62;;;;;13.40;1.00;;;;;;2272958;61;1740;-89
2021/03/28 03:49:05;604057.00;2.01;1041.23;29018.00;0.10;50.88;;;;;12.70;1.00;;;;;;2272974;61;1009;-89
2021/03/28 03:52:24;327595.00;1.09;565.35;0.00;0.00;0.62;;;;;12.20;1.00;;;;;;2272923;61;1459;-91
2021/03/28 03:54:58;273291.00;0.91;472.00;0.00;0.00;0.62;;;;;12.70;1.00;;;;;;2256350;61;1708;-90
2021/03/28 03:57:35;308204.00;1.03;532.02;0.00;0.00;0.62;;;;;11.80;1.00;;;;;;2256426;61;1489;-90
2021/03/28 04:00:15;534155.00;1.78;920.65;19755.00;0.07;34.85;;;;;11.40;1.00;;;;;;2256453;61;1408;-90
2021/03/28 04:02:51;257469.00;0.86;444.80;0.00;0.00;0.62;;;;;12.00;1.00;;;;;;2256404;61;1928;-90
2021/03/28 04:05:32;341193.00;1.14;588.72;0.00;0.00;0.62;;;;;12.60;1.00;;;;;;2256306;61;1609;-91
2021/03/28 04:08:08;375440.00;1.25;647.59;23611.00;0.08;41.52;;;;;12.70;1.00;;;;;;2256423;61;1108;-91
2021/03/28 04:10:41;517110.00;1.72;891.29;0.00;0.00;0.62;;;;;13.00;1.00;;;;;;2256183;61;1743;-90
2021/03/28 04:13:41;669809.00;2.23;1154.92;0.00;0.00;0.62;;;;;13.20;1.00;;;;;;2256216;61;1141;-91
2021/03/28 04:16:29;297185.00;0.99;513.08;0.00;0.00;0.62;;;;;12.90;1.00;;;;;;2252317;61;1737;-90
2021/03/28 04:19:26;552157.00;1.84;951.68;0.00;0.00;0.62;;;;;12.70;1.00;;;;;;2256377;61;1054;-90
2021/03/28 04:22:15;147476416.00;491.59;130013576.00;32406.00;0.11;56.75;;;;;12.60;1.00;;;;;;2256316;61;1916;-91
2021/03/28 04:24:54;139750976.00;465.84;110614704.00;0.00;0.00;0.62;;;;;13.00;1.00;;;;;;2258432;61;1152;-90
2021/03/28 04:27:39;387985.00;1.29;669.15;0.00;0.00;0.62;;;;;13.00;1.00;;;;;;2272758;61;1755;-91
2021/03/28 04:30:24;325345.00;1.08;561.49;0.00;0.00;0.62;;;;;12.00;1.00;;;;;;2272813;61;1459;-89
2021/03/28 04:32:58;376049.00;1.25;648.63;0.00;0.00;0.62;;;;;11.50;1.00;;;;;;2272775;61;1624;-90
2021/03/28 04:35:55;356004.00;1.19;614.18;39314.00;0.13;68.70;;;;;11.90;1.00;;;;;;2272760;61;1760;-90
2021/03/28 04:38:35;275988.00;0.92;476.64;0.00;0.00;0.62;;;;;12.50;1.00;;;;;;2272851;61;933;-90
2021/03/28 04:41:36;370267.00;1.23;638.70;0.00;0.00;0.62;;;;;12.80;1.00;;;;;;2272734;61;2049;-90
2021/03/28 04:44:47;504031.00;1.68;868.76;18777.00;0.06;33.15;;;;;13.20;1.00;;;;;;2272709;61;1369;-90
2021/03/28 04:47:51;174428.00;0.58;301.89;0.00;0.00;0.62;;;;;13.70;1.00;;;;;;2272706;61;1740;-91
2021/03/28 04:50:48;280577.00;0.94;484.53;0.00;0.00;0.62;;;;;13.80;1.00;;;;;;2272730;61;1387;-91
2021/03/28 04:53:51;237373.00;0.79;410.23;0.00;0.00;0.62;;;;;13.60;1.00;;;;;;2272773;61;1443;-90
2021/03/28 04:56:45;160171.00;0.53;277.33;0.00;0.00;0.62;;;;;13.20;1.00;;;;;;2272737;61;1086;-89
2021/03/28 04:59:38;186923.00;0.62;323.41;0.00;0.00;0.62;;;;;13.10;1.00;;;;;;2272757;61;932;-89
2021/03/28 05:02:25;328618.00;1.10;567.11;0.00;0.00;0.62;;;;;12.00;1.00;;;;;;2272625;61;1911;-89
2021/03/28 05:05:30;287724.00;0.96;496.82;0.00;0.00;0.62;;;;;11.10;1.00;;;;;;2272684;61;1782;-89
2021/03/28 05:08:32;437070.00;1.46;753.54;0.00;0.00;0.62;;;;;11.00;1.00;;;;;;2272638;61;1190;-89
2021/03/28 05:14:05;384145.00;1.28;662.55;0.00;0.00;0.62;;;;;10.90;1.00;;;;;;2270377;61;1395;-89
2021/03/28 05:17:09;448014.00;1.49;772.37;28410.00;0.09;49.83;;;;;11.30;1.00;;;;;;2258267;61;1004;-89
2021/03/28 05:20:00;254112.00;0.85;439.02;0.00;0.00;0.62;;;;;11.70;1.00;;;;;;2268126;61;949;-91
2021/03/28 05:23:06;501476.00;1.67;864.36;36569.00;0.12;63.95;;;;;11.50;1.00;;;;;;2254264;61;1912;-89
2021/03/28 05:26:00;385967.00;1.29;665.68;0.00;0.00;0.62;;;;;11.30;1.00;;;;;;2264485;61;1005;-90
2021/03/28 05:28:59;376972.00;1.26;650.22;24338.00;0.08;42.78;;;;;11.00;1.00;;;;;;2252078;61;1011;-89
2021/03/28 05:32:10;853668.00;2.85;1474.89;102498.00;0.34;177.88;;;;;10.30;1.00;;;;;;2240210;62;1438;-88
2021/03/28 05:35:03;367105.00;1.22;633.26;8366.00;0.03;15.12;;;;;9.60;1.00;;;;;;2236422;62;932;-89
2021/03/28 05:37:58;483485.00;1.61;833.40;0.00;0.00;0.62;;;;;9.20;1.00;;;;;;2240301;62;946;-89
2021/03/28 05:40:55;491981.00;1.64;848.02;7958.00;0.03;14.41;;;;;9.10;1.00;;;;;;2232347;62;1469;-88
2021/03/28 05:43:53;362599.00;1.21;625.52;0.00;0.00;0.62;;;;;9.20;1.00;;;;;;2229140;62;977;-88
2021/03/28 05:46:44;374678.00;1.25;646.28;0.00;0.00;0.62;;;;;9.70;1.00;;;;;;2220631;62;1031;-88
2021/03/28 05:49:23;477451.00;1.59;823.01;0.00;0.00;0.62;;;;;10.50;1.00;;;;;;2220572;62;1000;-90
2021/03/28 05:52:11;503506.00;1.68;867.86;0.00;0.00;0.62;;;;;10.90;1.00;;;;;;2220629;62;1438;-90
2021/03/28 05:55:37;338773.00;1.13;584.56;0.00;0.00;0.62;;;;;11.40;1.00;;;;;;2216603;62;1005;-89
2021/03/28 05:58:39;316160.00;1.05;545.70;0.00;0.00;0.62;;;;;11.50;1.00;;;;;;2220582;62;1009;-90
2021/03/28 06:01:28;405279.00;1.35;698.88;0.00;0.00;0.62;;;;;12.40;1.00;;;;;;2210323;62;1994;-88
2021/03/28 06:04:51;301114.00;1.00;519.83;0.00;0.00;0.62;;;;;12.90;1.00;;;;;;2216805;62;1015;-89
2021/03/28 06:08:05;419206.00;1.40;722.83;45142.00;0.15;78.78;;;;;13.00;1.00;;;;;;2216386;62;1056;-90
2021/03/28 06:11:06;263845.00;0.88;455.76;0.00;0.00;0.62;;;;;12.40;1.00;;;;;;2216754;62;1319;-89
2021/03/28 06:14:04;294885.00;0.98;509.13;0.00;0.00;0.62;;;;;12.30;1.00;;;;;;2205168;63;1060;-89
2021/03/28 06:16:58;506341.00;1.69;872.74;0.00;0.00;0.62;;;;;13.00;1.00;;;;;;2207534;62;1438;-90
2021/03/28 06:20:06;559960.00;1.87;965.13;0.00;0.00;0.62;;;;;13.20;1.00;;;;;;2205860;62;1003;-88
2021/03/28 06:23:03;469292.00;1.56;808.97;0.00;0.00;0.62;;;;;13.60;1.00;;;;;;2205986;62;1998;-90
2021/03/28 06:26:19;353544.00;1.18;609.95;0.00;0.00;0.62;;;;;13.30;1.00;;;;;;2215669;62;1042;-88
2021/03/28 06:29:37;232463.00;0.77;401.79;0.00;0.00;0.62;;;;;12.70;1.00;;;;;;2220599;62;984;-90
2021/03/28 06:32:28;284412.00;0.95;491.12;0.00;0.00;0.62;;;;;13.00;1.00;;;;;;2228820;62;1437;-90
2021/03/28 06:35:26;382367.00;1.27;659.49;0.00;0.00;0.62;;;;;13.60;1.00;;;;;;2232265;62;1013;-90
2021/03/28 06:38:22;325789.00;1.09;562.25;0.00;0.00;0.62;;;;;13.80;1.00;;;;;;2236065;62;1060;-89
2021/03/28 06:41:21;236332.00;0.79;408.44;0.00;0.00;0.62;;;;;15.10;1.00;;;;;;2242010;62;1994;-92
2021/03/28 06:44:44;85603.00;0.29;148.71;0.00;0.00;0.62;;;;;16.50;1.00;;;;;;2243962;62;1710;-90
2021/03/28 06:47:46;280793.00;0.94;484.90;26614.00;0.09;46.72;;;;;17.00;1.00;;;;;;2240837;61;1021;-90
2021/03/28 06:50:33;288913.00;0.96;498.86;0.00;0.00;0.62;;;;;15.60;1.00;;;;;;2247873;61;1300;-89
2021/03/28 06:53:36;318050.00;1.06;548.95;0.00;0.00;0.62;;;;;14.70;1.00;;;;;;2248002;61;1003;-90
2021/03/28 06:56:34;185132.00;0.62;320.33;0.00;0.00;0.62;;;;;15.10;1.00;;;;;;2246857;61;973;-91
2021/03/28 06:59:21;200724.00;0.67;347.17;0.00;0.00;0.62;;;;;16.10;1.00;;;;;;2239903;62;1005;-92
2021/03/28 07:02:29;100724.00;0.34;174.82;0.00;0.00;0.62;;;;;17.30;1.00;;;;;;2239959;62;2006;-91
2021/03/28 07:05:25;131346.00;0.44;227.65;0.00;0.00;0.62;;;;;18.10;1.00;;;;;;2239376;62;1461;-88
2021/03/28 07:08:21;91905.00;0.31;159.60;0.00;0.00;0.62;;;;;17.80;1.00;;;;;;2239884;62;911;-89
2021/03/28 07:11:10;187773.00;0.63;324.87;0.00;0.00;0.62;;;;;16.90;1.00;;;;;;2239560;62;1314;-89
2021/03/28 07:14:08;340663.00;1.14;587.81;0.00;0.00;0.62;;;;;16.00;1.00;;;;;;2239948;62;1076;-90
2021/03/28 07:17:04;561890.00;1.87;968.46;61277.00;0.20;106.68;;;;;15.70;1.00;;;;;;2243422;61;1619;-90
2021/03/28 07:20:08;148302.00;0.49;256.88;0.00;0.00;0.62;;;;;15.60;1.00;;;;;;2265001;61;923;-90
2021/03/28 07:23:28;199809.00;0.67;345.59;0.00;0.00;0.62;;;;;15.80;1.00;;;;;;2232383;62;1918;-89
2021/03/28 07:26:04;85039.00;0.28;147.74;0.00;0.00;0.62;;;;;17.00;1.00;;;;;;2224899;62;993;-88
2021/03/28 07:29:06;189631.00;0.63;328.07;0.00;0.00;0.62;;;;;16.90;1.00;;;;;;2224959;62;1017;-90
2021/03/28 07:32:21;102569.00;0.34;178.01;0.00;0.00;0.62;;;;;16.70;1.00;;;;;;2230891;62;1378;-89
2021/03/28 07:35:19;185151.00;0.62;320.36;0.00;0.00;0.62;;;;;16.80;1.00;;;;;;2232733;62;1187;-89
2021/03/28 07:38:28;129030.00;0.43;223.66;0.00;0.00;0.62;;;;;16.60;1.00;;;;;;2232611;62;959;-89
2021/03/28 07:41:27;123449.00;0.41;214.03;0.00;0.00;0.62;;;;;16.80;1.00;;;;;;2235126;62;1916;-89
2021/03/28 07:44:31;159844.00;0.53;276.77;0.00;0.00;0.62;;;;;17.20;1.00;;;;;;2228792;62;1094;-89
2021/03/28 07:47:28;81988.00;0.27;142.47;0.00;0.00;0.62;;;;;17.50;1.00;;;;;;2228811;62;1056;-90
2021/03/28 07:50:29;94286.00;0.31;163.71;0.00;0.00;0.62;;;;;17.30;1.00;;;;;;2228659;62;1358;-90
2021/03/28 07:53:37;125386.00;0.42;217.37;0.00;0.00;0.62;;;;;16.80;1.00;;;;;;2228824;62;1035;-89
2021/03/28 07:56:25;297847.00;0.99;514.22;0.00;0.00;0.62;;;;;17.40;1.00;;;;;;2218171;62;1106;-90
2021/03/28 07:59:02;211314.00;0.70;365.40;18736.00;0.06;33.08;;;;;17.40;1.00;;;;;;2236074;61;1717;-89
2021/03/28 08:01:51;146978.00;0.49;254.60;0.00;0.00;0.62;;;;;16.90;1.00;;;;;;2258917;61;1996;-89
2021/03/28 08:04:57;229699.00;0.77;397.03;0.00;0.00;0.62;;;;;16.10;1.00;;;;;;2264880;61;1091;-90
2021/03/28 08:07:52;97369.00;0.32;169.03;0.00;0.00;0.62;;;;;16.00;1.00;;;;;;2264877;61;907;-89
2021/03/28 08:10:41;122496.00;0.41;212.39;0.00;0.00;0.62;;;;;16.40;1.00;;;;;;2264852;61;1476;-90
2021/03/28 08:13:40;132493.00;0.44;229.63;0.00;0.00;0.62;;;;;16.50;1.00;;;;;;2264769;61;1592;-90
2021/03/28 08:16:34;92356.00;0.31;160.38;0.00;0.00;0.62;;;;;17.30;1.00;;;;;;2264861;61;1747;-89
2021/03/28 08:19:25;110099.00;0.37;191.00;0.00;0.00;0.62;;;;;17.80;1.00;;;;;;2264829;61;1023;-90
2021/03/28 08:22:04;318501.00;1.06;549.72;0.00;0.00;0.62;;;;;18.10;1.00;;;;;;2264732;61;1914;-90
2021/03/28 08:25:00;182619.00;0.61;316.00;0.00;0.00;0.62;;;;;18.20;1.00;;;;;;2261020;61;995;-90
2021/03/28 08:27:59;144694.00;0.48;250.66;0.00;0.00;0.62;;;;;17.90;1.00;;;;;;2264807;61;1124;-90
2021/03/28 08:30:47;90714.00;0.30;157.54;0.00;0.00;0.62;;;;;17.60;1.00;;;;;;2242390;61;1448;-90
2021/03/28 08:33:46;116083.00;0.39;201.33;0.00;0.00;0.62;;;;;17.20;1.00;;;;;;2252333;61;1006;-90
2021/03/28 08:36:37;86068.00;0.29;149.52;0.00;0.00;0.62;;;;;17.10;1.00;;;;;;2244368;62;954;-90
2021/03/28 08:39:26;215089.00;0.72;371.89;0.00;0.00;0.62;;;;;16.70;1.00;;;;;;2244470;62;986;-89
2021/03/28 08:42:22;152914.00;0.51;264.83;13246.00;0.04;23.57;;;;;16.60;1.00;;;;;;2244321;62;2019;-89
2021/03/28 08:45:26;145996048.00;486.65;126133536.00;0.00;0.00;0.62;;;;;16.30;1.00;;;;;;2244433;62;941;-90
2021/03/28 08:48:23;221434.00;0.74;382.81;0.00;0.00;0.62;;;;;16.00;1.00;;;;;;2244425;62;998;-89
2021/03/28 08:51:09;163861.00;0.55;283.69;0.00;0.00;0.62;;;;;16.60;1.00;;;;;;2240326;62;1415;-90
2021/03/28 08:53:59;434702.00;1.45;749.47;0.00;0.00;0.62;;;;;17.20;1.00;;;;;;2242206;61;995;-90
2021/03/28 08:56:50;201484.00;0.67;348.48;18607.00;0.06;32.86;;;;;17.30;1.00;;;;;;2248290;61;1063;-90
2021/03/28 08:59:32;143278.00;0.48;248.22;0.00;0.00;0.62;;;;;16.90;1.00;;;;;;2248258;61;1109;-89
2021/03/28 09:02:15;260865.00;0.87;450.64;2838.00;0.01;5.54;;;;;17.00;1.00;;;;;;2248232;61;1920;-90
2021/03/28 09:04:53;190164.00;0.63;328.99;18832.00;0.06;33.25;;;;;16.90;1.00;;;;;;2248170;61;1738;-90
2021/03/28 09:07:40;266020.00;0.89;459.50;26926.00;0.09;47.26;;;;;16.60;1.00;;;;;;2255109;61;1025;-89
2021/03/28 09:10:49;91374.00;0.30;158.68;0.00;0.00;0.62;;;;;16.20;1.00;;;;;;2264610;61;1386;-89
2021/03/28 09:13:38;369562.00;1.23;637.48;86802.00;0.29;150.79;;;;;16.20;1.00;;;;;;2258724;61;1111;-89
2021/03/28 09:16:17;399620.00;1.33;689.15;92409.00;0.31;160.47;;;;;15.70;1.00;;;;;;2264574;61;1653;-89
2021/03/28 09:18:55;335078.00;1.12;578.21;19027.00;0.06;33.59;;;;;15.60;1.00;;;;;;2256112;61;938;-90
2021/03/28 09:21:38;208819.00;0.70;361.10;0.00;0.00;0.62;;;;;15.50;1.00;;;;;;2256042;61;2003;-88
2021/03/28 09:24:34;194964.00;0.65;337.25;19695.00;0.07;34.74;;;;;15.50;1.00;;;;;;2256143;61;1008;-89
2021/03/28 09:27:32;127489.00;0.42;221.00;0.00;0.00;0.62;;;;;15.70;1.00;;;;;;2254987;61;1791;-88
2021/03/28 09:30:26;545877.00;1.82;940.85;82359.00;0.27;143.11;;;;;15.90;1.00;;;;;;2255021;61;1404;-89
2021/03/28 09:33:24;567705.00;1.89;978.49;11891.00;0.04;21.23;;;;;16.20;1.00;;;;;;2255945;61;1144;-88
2021/03/28 09:36:25;369886.00;1.23;638.04;17989.00;0.06;31.79;;;;;16.60;1.00;;;;;;2256924;61;2021;-90
2021/03/28 09:39:20;348381.00;1.16;601.08;0.00;0.00;0.62;;;;;16.10;1.00;;;;;;2264589;61;1036;-90
2021/03/28 09:42:19;178814.00;0.60;309.45;0.00;0.00;0.62;;;;;16.40;1.00;;;;;;2264338;61;2003;-89
2021/03/28 09:45:30;134767.00;0.45;233.55;0.00;0.00;0.62;;;;;16.20;1.00;;;;;;2263879;61;1164;-90
2021/03/28 09:48:27;186477.00;0.62;322.64;0.00;0.00;0.62;;;;;16.70;1.00;;;;;;2264621;61;1152;-89
2021/03/28 09:51:14;345472.00;1.15;596.08;32169.00;0.11;56.34;;;;;16.90;1.00;;;;;;2264695;61;1468;-89
2021/03/28 09:54:04;204559.00;0.68;353.77;0.00;0.00;0.62;;;;;17.60;1.00;;;;;;2264636;61;1022;-90
2021/03/28 09:57:04;210377.00;0.70;363.78;0.00;0.00;0.62;;;;;17.90;1.00;;;;;;2264658;61;1060;-90
2021/03/28 10:00:02;279116.00;0.93;482.02;0.00;0.00;0.62;;;;;17.70;1.00;;;;;;2264538;61;1703;-90
2021/03/28 10:02:47;117565.00;0.39;203.88;0.00;0.00;0.62;;;;;17.60;1.00;;;;;;2264529;61;1997;-90
2021/03/28 10:05:24;363086.00;1.21;626.35;0.00;0.00;0.62;;;;;17.30;1.00;;;;;;2264418;61;1594;-89
2021/03/28 10:08:08;210078.00;0.70;363.27;0.00;0.00;0.62;;;;;17.80;1.00;;;;;;2264490;61;1099;-88
2021/03/28 10:11:04;73066.00;0.24;127.06;0.00;0.00;0.62;;;;;18.10;1.00;;;;;;2264524;61;1446;-90
2021/03/28 10:14:14;100316.00;0.33;174.12;0.00;0.00;0.62;;;;;18.00;1.00;;;;;;2264405;61;1139;-90
2021/03/28 10:16:50;125299.00;0.42;217.22;0.00;0.00;0.62;;;;;17.30;1.00;;;;;;2264450;61;1027;-89
2021/03/28 10:19:24;322179.00;1.07;556.04;10522.00;0.04;18.85;;;;;17.30;1.00;;;;;;2264371;61;967;-88
2021/03/28 10:22:12;217185.00;0.72;375.50;0.00;0.00;0.62;;;;;17.10;1.00;;;;;;2264292;61;2013;-88
2021/03/28 10:25:18;284997.00;0.95;492.13;43525.00;0.15;75.99;;;;;17.00;1.00;;;;;;2264402;61;1116;-90
2021/03/28 10:28:29;319100.00;1.06;550.75;17803.00;0.06;31.47;;;;;17.00;1.00;;;;;;2251492;61;948;-89
2021/03/28 10:31:21;451415.00;1.50;778.22;0.00;0.00;0.62;;;;;17.10;1.00;;;;;;2264376;61;1294;-90
2021/03/28 10:34:21;126363.00;0.42;219.06;0.00;0.00;0.62;;;;;17.00;1.00;;;;;;2264350;61;1990;-90
2021/03/28 10:37:04;105945.00;0.35;183.83;0.00;0.00;0.62;;;;;17.20;1.00;;;;;;2264468;61;986;-89
2021/03/28 10:40:28;410380.00;1.37;707.65;42832.00;0.14;74.79;;;;;17.30;1.00;;;;;;2264370;61;1013;-89
2021/03/28 10:43:06;207636.00;0.69;359.07;0.00;0.00;0.62;;;;;17.20;1.00;;;;;;2244101;61;2011;-89
2021/03/28 10:45:52;265746.00;0.89;459.03;0.00;0.00;0.62;;;;;16.80;1.00;;;;;;2247902;61;1699;-89
2021/03/28 10:49:02;119775.00;0.40;207.69;0.00;0.00;0.62;;;;;17.00;1.00;;;;;;2247926;61;1654;-89
2021/03/28 10:52:06;110287.00;0.37;191.33;0.00;0.00;0.62;;;;;17.00;1.00;;;;;;2247929;61;1370;-90
2021/03/28 10:55:22;169660.00;0.57;293.68;0.00;0.00;0.62;;;;;17.10;1.00;;;;;;2241729;61;1608;-90
2021/03/28 10:58:35;69936.00;0.23;121.65;0.00;0.00;0.62;;;;;17.70;1.00;;;;;;2247942;61;1025;-90
2021/03/28 11:01:45;140528.00;0.47;243.48;0.00;0.00;0.62;;;;;17.30;1.00;;;;;;2247984;61;1469;-88
2021/03/28 11:05:00;219647.00;0.73;379.74;0.00;0.00;0.62;;;;;17.20;1.00;;;;;;2236059;62;1053;-90
2021/03/28 11:08:04;275029.00;0.92;474.99;0.00;0.00;0.62;;;;;17.20;1.00;;;;;;2232830;62;979;-89
2021/03/28 11:10:51;619439.00;2.06;1067.80;111315.00;0.37;193.10;;;;;17.50;1.00;;;;;;2232123;62;1301;-89
2021/03/28 11:14:04;69932.00;0.23;121.64;0.00;0.00;0.62;;;;;17.30;1.00;;;;;;2234342;61;1041;-89
2021/03/28 11:16:50;437052.00;1.46;753.51;76818.00;0.26;133.54;;;;;17.00;1.00;;;;;;2232775;62;1024;-89
2021/03/28 11:19:57;287755.00;0.96;496.87;83680.00;0.28;145.39;;;;;17.20;1.00;;;;;;2226340;62;988;-89
2021/03/28 11:22:39;335318.00;1.12;578.63;81422.00;0.27;141.49;;;;;17.40;1.00;;;;;;2242566;61;1912;-89
2021/03/28 11:25:19;639887.00;2.13;1103.14;77617.00;0.26;134.92;;;;;17.50;1.00;;;;;;2247863;61;1041;-88
2021/03/28 11:28:23;103134.00;0.34;178.98;0.00;0.00;0.62;;;;;17.50;1.00;;;;;;2244475;62;1048;-90
2021/03/28 11:30:54;77580.00;0.26;134.86;0.00;0.00;0.62;;;;;17.20;1.00;;;;;;2247841;61;1309;-88